Terminal Aerodrome Forecast
Issued by NWS

Current Version | Previous Version | Text Only | Print | Product List | Glossary On
Versions: 1 2 3 4 5 6 7 8 9 10 11 12 13 14 15 16 17 18 19 20 21 22 23 24 25 26 27 28 29 30 31 32 33 34 35 36 37 38 39 40 41 42
000
FTUS44 KHGX 312325
TAFSGR
TAF
KSGR 312325Z 0100/0124 13009KT P6SM VCTS BKN040CB BKN060
      TEMPO 0100/0101 VRB15G28KT 4SM TSRA BKN035CB
     FM010700 VRB03KT P6SM VCSH SCT015 BKN040
     FM011000 23003KT P6SM VCSH BKN050
     FM011400 27005KT P6SM SCT015 BKN040
     FM012100 27005KT P6SM VCSH BKN040=

USA.gov is the U.S. government's official web portal to all federal, state and local government web resources and services.